sensor_id;sensor_type;location;lat;lon;timestamp;temperature;humidity
59469;DHT22;45277;52.768;18.262;2023-02-01T00:00:25;3.70;99.90
59469;DHT22;45277;52.768;18.262;2023-02-01T00:02:16;3.60;99.90
59469;DHT22;45277;52.768;18.262;2023-02-01T00:03:48;3.60;99.90
59469;DHT22;45277;52.768;18.262;2023-02-01T00:05:19;3.60;99.90
59469;DHT22;45277;52.768;18.262;2023-02-01T00:06:51;3.70;99.90
59469;DHT22;45277;52.768;18.262;2023-02-01T00:08:22;3.70;99.90
59469;DHT22;45277;52.768;18.262;2023-02-01T00:09:54;3.60;99.90
59469;DHT22;45277;52.768;18.262;2023-02-01T00:11:25;3.50;99.90
59469;DHT22;45277;52.768;18.262;2023-02-01T00:12:57;3.50;99.90
59469;DHT22;45277;52.768;18.262;2023-02-01T00:14:29;3.40;99.90
59469;DHT22;45277;52.768;18.262;2023-02-01T00:16:08;3.40;99.90
59469;DHT22;45277;52.768;18.262;2023-02-01T00:17:40;3.40;99.90
59469;DHT22;45277;52.768;18.262;2023-02-01T00:19:13;3.40;99.90
59469;DHT22;45277;52.768;18.262;2023-02-01T00:20:46;3.40;99.90
59469;DHT22;45277;52.768;18.262;2023-02-01T00:22:18;3.40;99.90
59469;DHT22;45277;52.768;18.262;2023-02-01T00:23:49;3.40;99.90
59469;DHT22;45277;52.768;18.262;2023-02-01T00:25:21;3.30;99.90
59469;DHT22;45277;52.768;18.262;2023-02-01T00:26:52;3.20;99.90
59469;DHT22;45277;52.768;18.262;2023-02-01T00:28:24;3.30;99.90
59469;DHT22;45277;52.768;18.262;2023-02-01T00:29:55;3.30;99.90
59469;DHT22;45277;52.768;18.262;2023-02-01T00:31:27;3.30;99.90
59469;DHT22;45277;52.768;18.262;2023-02-01T00:32:58;3.30;99.90
59469;DHT22;45277;52.768;18.262;2023-02-01T00:34:30;3.40;99.90
59469;DHT22;45277;52.768;18.262;2023-02-01T00:36:06;3.40;99.90
59469;DHT22;45277;52.768;18.262;2023-02-01T00:37:38;3.50;99.90
59469;DHT22;45277;52.768;18.262;2023-02-01T00:39:10;3.50;99.90
59469;DHT22;45277;52.768;18.262;2023-02-01T00:40:42;3.40;99.90
59469;DHT22;45277;52.768;18.262;2023-02-01T00:42:13;3.40;99.90
59469;DHT22;45277;52.768;18.262;2023-02-01T00:43:45;3.40;99.90
59469;DHT22;45277;52.768;18.262;2023-02-01T00:45:17;3.40;99.90
59469;DHT22;45277;52.768;18.262;2023-02-01T00:46:48;3.40;99.90
59469;DHT22;45277;52.768;18.262;2023-02-01T00:48:20;3.40;99.90
59469;DHT22;45277;52.768;18.262;2023-02-01T00:49:52;3.40;99.90
59469;DHT22;45277;52.768;18.262;2023-02-01T00:51:26;3.40;99.90
59469;DHT22;45277;52.768;18.262;2023-02-01T00:52:58;3.40;99.90
59469;DHT22;45277;52.768;18.262;2023-02-01T00:54:29;3.40;99.90
59469;DHT22;45277;52.768;18.262;2023-02-01T00:56:01;3.40;99.90
59469;DHT22;45277;52.768;18.262;2023-02-01T00:57:32;3.50;99.90
59469;DHT22;45277;52.768;18.262;2023-02-01T00:59:04;3.50;99.90
59469;DHT22;45277;52.768;18.262;2023-02-01T01:00:35;3.60;99.90
59469;DHT22;45277;52.768;18.262;2023-02-01T01:02:07;3.60;99.90
59469;DHT22;45277;52.768;18.262;2023-02-01T01:03:42;3.50;99.90
59469;DHT22;45277;52.768;18.262;2023-02-01T01:05:13;3.50;99.90
59469;DHT22;45277;52.768;18.262;2023-02-01T01:06:45;3.60;99.90
59469;DHT22;45277;52.768;18.262;2023-02-01T01:08:16;3.60;99.90
59469;DHT22;45277;52.768;18.262;2023-02-01T01:09:48;3.60;99.90
59469;DHT22;45277;52.768;18.262;2023-02-01T01:11:22;3.60;99.90
59469;DHT22;45277;52.768;18.262;2023-02-01T01:12:54;3.70;99.90
59469;DHT22;45277;52.768;18.262;2023-02-01T01:14:25;3.70;99.90
59469;DHT22;45277;52.768;18.262;2023-02-01T01:16:00;3.70;99.90
59469;DHT22;45277;52.768;18.262;2023-02-01T01:17:33;3.70;99.90
59469;DHT22;45277;52.768;18.262;2023-02-01T01:19:05;3.70;99.90
59469;DHT22;45277;52.768;18.262;2023-02-01T01:20:38;3.70;99.90
59469;DHT22;45277;52.768;18.262;2023-02-01T01:22:10;3.60;99.90
59469;DHT22;45277;52.768;18.262;2023-02-01T01:23:42;3.60;99.90
59469;DHT22;45277;52.768;18.262;2023-02-01T01:25:14;3.60;99.90
59469;DHT22;45277;52.768;18.262;2023-02-01T01:26:45;3.60;99.90
59469;DHT22;45277;52.768;18.262;2023-02-01T01:28:17;3.60;99.90
59469;DHT22;45277;52.768;18.262;2023-02-01T01:29:49;3.60;99.90
59469;DHT22;45277;52.768;18.262;2023-02-01T01:31:21;3.60;99.90
59469;DHT22;45277;52.768;18.262;2023-02-01T01:32:52;3.70;99.90
59469;DHT22;45277;52.768;18.262;2023-02-01T01:34:24;3.70;99.90
59469;DHT22;45277;52.768;18.262;2023-02-01T01:35:55;3.80;99.90
59469;DHT22;45277;52.768;18.262;2023-02-01T01:37:27;3.80;99.90
59469;DHT22;45277;52.768;18.262;2023-02-01T01:38:58;3.80;99.90
59469;DHT22;45277;52.768;18.262;2023-02-01T01:40:30;3.80;99.90
59469;DHT22;45277;52.768;18.262;2023-02-01T01:42:02;3.80;99.90
59469;DHT22;45277;52.768;18.262;2023-02-01T01:45:30;3.80;99.90
59469;DHT22;45277;52.768;18.262;2023-02-01T01:47:02;3.80;99.90
59469;DHT22;45277;52.768;18.262;2023-02-01T01:48:34;3.70;99.90
59469;DHT22;45277;52.768;18.262;2023-02-01T01:50:10;3.70;99.90
59469;DHT22;45277;52.768;18.262;2023-02-01T01:52:00;3.70;99.90
59469;DHT22;45277;52.768;18.262;2023-02-01T01:53:37;3.70;99.90
59469;DHT22;45277;52.768;18.262;2023-02-01T01:55:10;3.80;99.90
59469;DHT22;45277;52.768;18.262;2023-02-01T01:56:41;3.80;99.90
59469;DHT22;45277;52.768;18.262;2023-02-01T01:58:21;3.80;99.90
59469;DHT22;45277;52.768;18.262;2023-02-01T02:00:11;3.80;99.90
59469;DHT22;45277;52.768;18.262;2023-02-01T02:01:43;3.80;99.90
59469;DHT22;45277;52.768;18.262;2023-02-01T02:03:24;3.90;99.90
59469;DHT22;45277;52.768;18.262;2023-02-01T02:04:56;3.80;99.90
59469;DHT22;45277;52.768;18.262;2023-02-01T02:08:19;3.80;99.90
59469;DHT22;45277;52.768;18.262;2023-02-01T02:09:54;3.80;99.90
59469;DHT22;45277;52.768;18.262;2023-02-01T02:11:26;3.80;99.90
59469;DHT22;45277;52.768;18.262;2023-02-01T02:12:57;3.80;99.90
59469;DHT22;45277;52.768;18.262;2023-02-01T02:14:29;3.90;99.90
59469;DHT22;45277;52.768;18.262;2023-02-01T02:18:32;3.90;99.90
59469;DHT22;45277;52.768;18.262;2023-02-01T02:27:03;3.90;99.90
59469;DHT22;45277;52.768;18.262;2023-02-01T02:34:25;3.90;99.90
59469;DHT22;45277;52.768;18.262;2023-02-01T02:36:10;3.90;99.90
59469;DHT22;45277;52.768;18.262;2023-02-01T02:37:53;3.90;99.90
59469;DHT22;45277;52.768;18.262;2023-02-01T02:43:43;3.90;99.90
59469;DHT22;45277;52.768;18.262;2023-02-01T02:46:24;3.90;99.90
59469;DHT22;45277;52.768;18.262;2023-02-01T02:48:04;3.90;99.90
59469;DHT22;45277;52.768;18.262;2023-02-01T02:49:49;3.80;99.90
59469;DHT22;45277;52.768;18.262;2023-02-01T02:51:53;3.70;99.90
59469;DHT22;45277;52.768;18.262;2023-02-01T02:53:52;3.60;99.90
59469;DHT22;45277;52.768;18.262;2023-02-01T02:55:45;3.60;99.90
59469;DHT22;45277;52.768;18.262;2023-02-01T02:57:27;3.70;99.90
59469;DHT22;45277;52.768;18.262;2023-02-01T02:59:21;3.70;99.90
59469;DHT22;45277;52.768;18.262;2023-02-01T03:01:12;3.70;99.90
59469;DHT22;45277;52.768;18.262;2023-02-01T03:03:03;3.80;99.90
59469;DHT22;45277;52.768;18.262;2023-02-01T03:04:54;3.80;99.90
59469;DHT22;45277;52.768;18.262;2023-02-01T03:06:27;3.90;99.90
59469;DHT22;45277;52.768;18.262;2023-02-01T03:08:10;3.90;99.90
59469;DHT22;45277;52.768;18.262;2023-02-01T03:09:44;3.90;99.90
59469;DHT22;45277;52.768;18.262;2023-02-01T03:11:17;3.90;99.90
59469;DHT22;45277;52.768;18.262;2023-02-01T03:12:49;3.90;99.90
59469;DHT22;45277;52.768;18.262;2023-02-01T03:14:29;3.90;99.90
59469;DHT22;45277;52.768;18.262;2023-02-01T03:17:45;3.90;99.90
59469;DHT22;45277;52.768;18.262;2023-02-01T03:19:24;3.90;99.90
59469;DHT22;45277;52.768;18.262;2023-02-01T03:20:59;3.90;99.90
59469;DHT22;45277;52.768;18.262;2023-02-01T03:22:32;3.90;99.90
59469;DHT22;45277;52.768;18.262;2023-02-01T03:24:11;4.00;99.90
59469;DHT22;45277;52.768;18.262;2023-02-01T03:25:43;3.90;99.90
59469;DHT22;45277;52.768;18.262;2023-02-01T03:27:35;3.90;99.90
59469;DHT22;45277;52.768;18.262;2023-02-01T03:29:17;3.90;99.90
59469;DHT22;45277;52.768;18.262;2023-02-01T03:30:50;3.90;99.90
59469;DHT22;45277;52.768;18.262;2023-02-01T03:32:22;3.90;99.90
59469;DHT22;45277;52.768;18.262;2023-02-01T03:33:54;3.90;99.90
59469;DHT22;45277;52.768;18.262;2023-02-01T03:35:33;3.90;99.90
59469;DHT22;45277;52.768;18.262;2023-02-01T03:37:12;3.90;99.90
59469;DHT22;45277;52.768;18.262;2023-02-01T03:39:12;4.00;99.90
59469;DHT22;45277;52.768;18.262;2023-02-01T03:40:53;4.00;99.90
59469;DHT22;45277;52.768;18.262;2023-02-01T03:42:38;3.90;99.90
59469;DHT22;45277;52.768;18.262;2023-02-01T03:44:23;3.90;99.90
59469;DHT22;45277;52.768;18.262;2023-02-01T03:46:00;3.90;99.90
59469;DHT22;45277;52.768;18.262;2023-02-01T03:47:36;3.90;99.90
59469;DHT22;45277;52.768;18.262;2023-02-01T03:49:12;3.90;99.90
59469;DHT22;45277;52.768;18.262;2023-02-01T03:50:49;3.90;99.90
59469;DHT22;45277;52.768;18.262;2023-02-01T03:52:34;3.90;99.90
59469;DHT22;45277;52.768;18.262;2023-02-01T03:54:10;3.90;99.90
59469;DHT22;45277;52.768;18.262;2023-02-01T03:55:43;3.80;99.90
59469;DHT22;45277;52.768;18.262;2023-02-01T03:57:25;3.90;99.90
59469;DHT22;45277;52.768;18.262;2023-02-01T03:58:57;3.90;99.90
59469;DHT22;45277;52.768;18.262;2023-02-01T04:00:31;3.90;99.90
59469;DHT22;45277;52.768;18.262;2023-02-01T04:02:03;3.90;99.90
59469;DHT22;45277;52.768;18.262;2023-02-01T04:03:35;4.00;99.90
59469;DHT22;45277;52.768;18.262;2023-02-01T04:05:06;4.00;99.90
59469;DHT22;45277;52.768;18.262;2023-02-01T04:06:38;3.90;99.90
59469;DHT22;45277;52.768;18.262;2023-02-01T04:08:09;4.00;99.90
59469;DHT22;45277;52.768;18.262;2023-02-01T04:09:40;3.90;99.90
59469;DHT22;45277;52.768;18.262;2023-02-01T04:11:13;3.90;99.90
59469;DHT22;45277;52.768;18.262;2023-02-01T04:12:44;3.90;99.90
59469;DHT22;45277;52.768;18.262;2023-02-01T04:14:16;3.80;99.90
59469;DHT22;45277;52.768;18.262;2023-02-01T04:15:47;3.80;99.90
59469;DHT22;45277;52.768;18.262;2023-02-01T04:17:20;3.80;99.90
59469;DHT22;45277;52.768;18.262;2023-02-01T04:18:55;3.80;99.90
59469;DHT22;45277;52.768;18.262;2023-02-01T04:20:27;3.80;99.90
59469;DHT22;45277;52.768;18.262;2023-02-01T04:21:58;3.80;99.90
59469;DHT22;45277;52.768;18.262;2023-02-01T04:23:30;3.70;99.90
59469;DHT22;45277;52.768;18.262;2023-02-01T04:25:03;3.70;99.90
59469;DHT22;45277;52.768;18.262;2023-02-01T04:26:36;3.70;99.90
59469;DHT22;45277;52.768;18.262;2023-02-01T04:28:08;3.80;99.90
59469;DHT22;45277;52.768;18.262;2023-02-01T04:29:40;3.80;99.90
59469;DHT22;45277;52.768;18.262;2023-02-01T04:31:12;3.80;99.90
59469;DHT22;45277;52.768;18.262;2023-02-01T04:32:43;3.80;99.90
59469;DHT22;45277;52.768;18.262;2023-02-01T04:34:15;3.80;99.90
59469;DHT22;45277;52.768;18.262;2023-02-01T04:35:47;3.90;99.90
59469;DHT22;45277;52.768;18.262;2023-02-01T04:37:19;3.90;99.90
59469;DHT22;45277;52.768;18.262;2023-02-01T04:38:51;3.90;99.90
59469;DHT22;45277;52.768;18.262;2023-02-01T04:40:22;3.90;99.90
59469;DHT22;45277;52.768;18.262;2023-02-01T04:41:54;3.90;99.90
59469;DHT22;45277;52.768;18.262;2023-02-01T04:43:25;3.90;99.90
59469;DHT22;45277;52.768;18.262;2023-02-01T04:44:57;3.90;99.90
59469;DHT22;45277;52.768;18.262;2023-02-01T04:46:28;3.90;99.90
59469;DHT22;45277;52.768;18.262;2023-02-01T04:48:00;3.80;99.90
59469;DHT22;45277;52.768;18.262;2023-02-01T04:49:31;3.80;99.90
59469;DHT22;45277;52.768;18.262;2023-02-01T04:51:02;3.80;99.90
59469;DHT22;45277;52.768;18.262;2023-02-01T04:52:34;3.70;99.90
59469;DHT22;45277;52.768;18.262;2023-02-01T04:54:07;3.70;99.90
59469;DHT22;45277;52.768;18.262;2023-02-01T04:55:38;3.60;99.90
59469;DHT22;45277;52.768;18.262;2023-02-01T04:57:10;3.60;99.90
59469;DHT22;45277;52.768;18.262;2023-02-01T04:58:44;3.60;99.90
59469;DHT22;45277;52.768;18.262;2023-02-01T05:00:15;3.50;99.90
59469;DHT22;45277;52.768;18.262;2023-02-01T05:01:47;3.60;99.90
59469;DHT22;45277;52.768;18.262;2023-02-01T05:03:19;3.60;99.90
59469;DHT22;45277;52.768;18.262;2023-02-01T05:04:50;3.60;99.90
59469;DHT22;45277;52.768;18.262;2023-02-01T05:06:22;3.60;99.90
59469;DHT22;45277;52.768;18.262;2023-02-01T05:07:53;3.60;99.90
59469;DHT22;45277;52.768;18.262;2023-02-01T05:09:25;3.60;99.90
59469;DHT22;45277;52.768;18.262;2023-02-01T05:10:57;3.60;99.90
59469;DHT22;45277;52.768;18.262;2023-02-01T05:12:29;3.60;99.90
59469;DHT22;45277;52.768;18.262;2023-02-01T05:14:19;3.70;99.90
59469;DHT22;45277;52.768;18.262;2023-02-01T05:15:52;3.70;99.90
59469;DHT22;45277;52.768;18.262;2023-02-01T05:17:23;3.70;99.90
59469;DHT22;45277;52.768;18.262;2023-02-01T05:18:54;3.80;99.90
59469;DHT22;45277;52.768;18.262;2023-02-01T05:20:26;3.80;99.90
59469;DHT22;45277;52.768;18.262;2023-02-01T05:21:57;3.80;99.90
59469;DHT22;45277;52.768;18.262;2023-02-01T05:23:29;3.80;99.90
59469;DHT22;45277;52.768;18.262;2023-02-01T05:25:01;3.80;99.90
59469;DHT22;45277;52.768;18.262;2023-02-01T05:26:32;3.90;99.90
59469;DHT22;45277;52.768;18.262;2023-02-01T05:28:04;3.90;99.90
59469;DHT22;45277;52.768;18.262;2023-02-01T05:29:36;3.90;99.90
59469;DHT22;45277;52.768;18.262;2023-02-01T05:31:11;3.90;99.90
59469;DHT22;45277;52.768;18.262;2023-02-01T05:32:42;3.90;99.90
59469;DHT22;45277;52.768;18.262;2023-02-01T05:34:17;3.90;99.90
59469;DHT22;45277;52.768;18.262;2023-02-01T05:35:48;4.00;99.90
59469;DHT22;45277;52.768;18.262;2023-02-01T05:37:21;3.90;99.90
59469;DHT22;45277;52.768;18.262;2023-02-01T05:38:53;3.90;99.90
59469;DHT22;45277;52.768;18.262;2023-02-01T05:40:24;3.90;99.90
59469;DHT22;45277;52.768;18.262;2023-02-01T05:41:55;3.80;99.90
59469;DHT22;45277;52.768;18.262;2023-02-01T05:43:27;3.80;99.90
59469;DHT22;45277;52.768;18.262;2023-02-01T05:44:58;3.80;99.90
59469;DHT22;45277;52.768;18.262;2023-02-01T05:46:29;3.80;99.90
59469;DHT22;45277;52.768;18.262;2023-02-01T05:48:01;3.80;99.90
59469;DHT22;45277;52.768;18.262;2023-02-01T05:49:33;3.80;99.90
59469;DHT22;45277;52.768;18.262;2023-02-01T05:51:04;3.90;99.90
59469;DHT22;45277;52.768;18.262;2023-02-01T05:52:36;3.90;99.90
59469;DHT22;45277;52.768;18.262;2023-02-01T05:54:08;3.90;99.90
59469;DHT22;45277;52.768;18.262;2023-02-01T05:55:41;4.00;99.90
59469;DHT22;45277;52.768;18.262;2023-02-01T05:57:13;3.90;99.90
59469;DHT22;45277;52.768;18.262;2023-02-01T05:58:44;3.90;99.90
59469;DHT22;45277;52.768;18.262;2023-02-01T06:00:16;4.00;99.90
59469;DHT22;45277;52.768;18.262;2023-02-01T06:01:50;4.00;99.90
59469;DHT22;45277;52.768;18.262;2023-02-01T06:03:21;4.00;99.90
59469;DHT22;45277;52.768;18.262;2023-02-01T06:04:53;4.00;99.90
59469;DHT22;45277;52.768;18.262;2023-02-01T06:06:24;4.00;99.90
59469;DHT22;45277;52.768;18.262;2023-02-01T06:07:56;4.00;99.90
59469;DHT22;45277;52.768;18.262;2023-02-01T06:09:28;4.00;99.90
59469;DHT22;45277;52.768;18.262;2023-02-01T06:11:04;4.00;99.90
59469;DHT22;45277;52.768;18.262;2023-02-01T06:12:36;4.10;99.90
59469;DHT22;45277;52.768;18.262;2023-02-01T06:14:07;4.10;99.90
59469;DHT22;45277;52.768;18.262;2023-02-01T06:15:39;4.00;99.90
59469;DHT22;45277;52.768;18.262;2023-02-01T06:17:13;4.00;99.90
59469;DHT22;45277;52.768;18.262;2023-02-01T06:18:44;4.00;99.90
59469;DHT22;45277;52.768;18.262;2023-02-01T06:20:16;4.00;99.90
59469;DHT22;45277;52.768;18.262;2023-02-01T06:21:48;4.00;99.90
59469;DHT22;45277;52.768;18.262;2023-02-01T06:23:19;4.10;99.90
59469;DHT22;45277;52.768;18.262;2023-02-01T06:24:55;4.00;99.90
59469;DHT22;45277;52.768;18.262;2023-02-01T06:26:26;4.10;99.90
59469;DHT22;45277;52.768;18.262;2023-02-01T06:28:02;4.10;99.90
59469;DHT22;45277;52.768;18.262;2023-02-01T06:29:37;4.10;99.90
59469;DHT22;45277;52.768;18.262;2023-02-01T06:31:08;4.10;99.90
59469;DHT22;45277;52.768;18.262;2023-02-01T06:32:39;4.20;99.90
59469;DHT22;45277;52.768;18.262;2023-02-01T06:34:11;4.20;99.90
59469;DHT22;45277;52.768;18.262;2023-02-01T06:35:43;4.20;99.90
59469;DHT22;45277;52.768;18.262;2023-02-01T06:37:15;4.20;99.90
59469;DHT22;45277;52.768;18.262;2023-02-01T06:38:47;4.20;99.90
59469;DHT22;45277;52.768;18.262;2023-02-01T06:40:19;4.20;99.90
59469;DHT22;45277;52.768;18.262;2023-02-01T06:41:50;4.30;99.90
59469;DHT22;45277;52.768;18.262;2023-02-01T06:43:23;4.30;99.90
59469;DHT22;45277;52.768;18.262;2023-02-01T06:44:55;4.20;99.90
59469;DHT22;45277;52.768;18.262;2023-02-01T06:46:26;4.20;99.90
59469;DHT22;45277;52.768;18.262;2023-02-01T06:47:59;4.20;99.90
59469;DHT22;45277;52.768;18.262;2023-02-01T06:49:31;4.20;99.90
59469;DHT22;45277;52.768;18.262;2023-02-01T06:51:02;4.20;99.90
59469;DHT22;45277;52.768;18.262;2023-02-01T06:52:35;4.20;99.90
59469;DHT22;45277;52.768;18.262;2023-02-01T06:54:07;4.10;99.90
59469;DHT22;45277;52.768;18.262;2023-02-01T06:55:38;4.10;99.90
59469;DHT22;45277;52.768;18.262;2023-02-01T06:57:10;4.00;99.90
59469;DHT22;45277;52.768;18.262;2023-02-01T06:58:41;4.00;99.90
59469;DHT22;45277;52.768;18.262;2023-02-01T07:00:13;4.00;99.90
59469;DHT22;45277;52.768;18.262;2023-02-01T07:01:45;3.90;99.90
59469;DHT22;45277;52.768;18.262;2023-02-01T07:03:16;3.90;99.90
59469;DHT22;45277;52.768;18.262;2023-02-01T07:04:48;3.90;99.90
59469;DHT22;45277;52.768;18.262;2023-02-01T07:06:19;3.90;99.90
59469;DHT22;45277;52.768;18.262;2023-02-01T07:07:51;3.90;99.90
59469;DHT22;45277;52.768;18.262;2023-02-01T07:09:22;3.90;99.90
59469;DHT22;45277;52.768;18.262;2023-02-01T07:10:54;3.90;99.90
59469;DHT22;45277;52.768;18.262;2023-02-01T07:12:26;3.90;99.90
59469;DHT22;45277;52.768;18.262;2023-02-01T07:13:57;3.90;99.90
59469;DHT22;45277;52.768;18.262;2023-02-01T07:15:29;3.80;99.90
59469;DHT22;45277;52.768;18.262;2023-02-01T07:17:01;3.80;99.90
59469;DHT22;45277;52.768;18.262;2023-02-01T07:18:33;3.80;99.90
59469;DHT22;45277;52.768;18.262;2023-02-01T07:20:05;3.80;99.90
59469;DHT22;45277;52.768;18.262;2023-02-01T07:21:36;3.80;99.90
59469;DHT22;45277;52.768;18.262;2023-02-01T07:23:11;3.80;99.90
59469;DHT22;45277;52.768;18.262;2023-02-01T07:24:43;3.80;99.90
59469;DHT22;45277;52.768;18.262;2023-02-01T07:26:14;3.80;99.90
59469;DHT22;45277;52.768;18.262;2023-02-01T07:27:47;3.80;99.90
59469;DHT22;45277;52.768;18.262;2023-02-01T07:29:19;3.80;99.90
59469;DHT22;45277;52.768;18.262;2023-02-01T07:30:50;3.90;99.90
59469;DHT22;45277;52.768;18.262;2023-02-01T07:32:22;3.80;99.90
59469;DHT22;45277;52.768;18.262;2023-02-01T07:33:54;3.90;99.90
59469;DHT22;45277;52.768;18.262;2023-02-01T07:35:28;3.90;99.90
59469;DHT22;45277;52.768;18.262;2023-02-01T07:36:59;3.90;99.90
59469;DHT22;45277;52.768;18.262;2023-02-01T07:38:31;3.90;99.90
59469;DHT22;45277;52.768;18.262;2023-02-01T07:40:03;3.90;99.90
59469;DHT22;45277;52.768;18.262;2023-02-01T07:41:34;3.90;99.90
59469;DHT22;45277;52.768;18.262;2023-02-01T07:43:06;4.00;99.90
59469;DHT22;45277;52.768;18.262;2023-02-01T07:44:38;3.90;99.90
59469;DHT22;45277;52.768;18.262;2023-02-01T07:46:11;4.00;99.90
59469;DHT22;45277;52.768;18.262;2023-02-01T07:47:42;3.90;99.90
59469;DHT22;45277;52.768;18.262;2023-02-01T07:49:14;4.00;99.90
59469;DHT22;45277;52.768;18.262;2023-02-01T07:50:45;3.90;99.90
59469;DHT22;45277;52.768;18.262;2023-02-01T07:52:17;4.00;99.90
59469;DHT22;45277;52.768;18.262;2023-02-01T07:53:49;4.00;99.90
59469;DHT22;45277;52.768;18.262;2023-02-01T07:55:21;4.00;99.90
59469;DHT22;45277;52.768;18.262;2023-02-01T07:56:53;4.00;99.90
59469;DHT22;45277;52.768;18.262;2023-02-01T07:58:25;4.00;99.90
59469;DHT22;45277;52.768;18.262;2023-02-01T07:59:57;4.00;99.90
59469;DHT22;45277;52.768;18.262;2023-02-01T08:01:47;4.10;99.90
59469;DHT22;45277;52.768;18.262;2023-02-01T08:03:19;4.00;99.90
59469;DHT22;45277;52.768;18.262;2023-02-01T08:04:50;4.10;99.90
59469;DHT22;45277;52.768;18.262;2023-02-01T08:06:23;4.10;99.90
59469;DHT22;45277;52.768;18.262;2023-02-01T08:07:55;4.10;99.90
59469;DHT22;45277;52.768;18.262;2023-02-01T08:09:27;4.10;99.90
59469;DHT22;45277;52.768;18.262;2023-02-01T08:11:03;4.10;99.90
59469;DHT22;45277;52.768;18.262;2023-02-01T08:12:35;4.10;99.90
59469;DHT22;45277;52.768;18.262;2023-02-01T08:14:06;4.10;99.90
59469;DHT22;45277;52.768;18.262;2023-02-01T08:15:39;4.10;99.90
59469;DHT22;45277;52.768;18.262;2023-02-01T08:17:10;4.10;99.90
59469;DHT22;45277;52.768;18.262;2023-02-01T08:18:42;4.10;99.90
59469;DHT22;45277;52.768;18.262;2023-02-01T08:20:14;4.20;99.90
59469;DHT22;45277;52.768;18.262;2023-02-01T08:21:47;4.20;99.90
59469;DHT22;45277;52.768;18.262;2023-02-01T08:23:20;4.20;99.90
59469;DHT22;45277;52.768;18.262;2023-02-01T08:24:53;4.30;99.90
59469;DHT22;45277;52.768;18.262;2023-02-01T08:26:32;4.30;99.90
59469;DHT22;45277;52.768;18.262;2023-02-01T08:28:05;4.40;99.90
59469;DHT22;45277;52.768;18.262;2023-02-01T08:29:37;4.40;99.90
59469;DHT22;45277;52.768;18.262;2023-02-01T08:31:13;4.40;99.90
59469;DHT22;45277;52.768;18.262;2023-02-01T08:32:48;4.50;99.90
59469;DHT22;45277;52.768;18.262;2023-02-01T08:34:20;4.50;99.90
59469;DHT22;45277;52.768;18.262;2023-02-01T08:35:51;4.50;99.90
59469;DHT22;45277;52.768;18.262;2023-02-01T08:37:22;4.50;99.90
59469;DHT22;45277;52.768;18.262;2023-02-01T08:38:55;4.50;99.90
59469;DHT22;45277;52.768;18.262;2023-02-01T08:40:26;4.50;99.90
59469;DHT22;45277;52.768;18.262;2023-02-01T08:41:59;4.60;99.90
59469;DHT22;45277;52.768;18.262;2023-02-01T08:43:49;4.70;99.90
59469;DHT22;45277;52.768;18.262;2023-02-01T08:45:23;4.80;99.90
59469;DHT22;45277;52.768;18.262;2023-02-01T08:46:55;4.70;99.90
59469;DHT22;45277;52.768;18.262;2023-02-01T08:48:27;4.70;99.90
59469;DHT22;45277;52.768;18.262;2023-02-01T08:49:59;4.50;99.90
59469;DHT22;45277;52.768;18.262;2023-02-01T08:51:30;4.50;99.90
59469;DHT22;45277;52.768;18.262;2023-02-01T08:53:02;4.40;99.90
59469;DHT22;45277;52.768;18.262;2023-02-01T08:54:33;4.30;99.90
59469;DHT22;45277;52.768;18.262;2023-02-01T08:56:05;4.30;99.90
59469;DHT22;45277;52.768;18.262;2023-02-01T08:57:38;4.20;99.90
59469;DHT22;45277;52.768;18.262;2023-02-01T08:59:10;4.20;99.90
59469;DHT22;45277;52.768;18.262;2023-02-01T09:00:41;4.20;99.90
59469;DHT22;45277;52.768;18.262;2023-02-01T09:02:15;4.20;99.90
59469;DHT22;45277;52.768;18.262;2023-02-01T09:03:47;4.20;99.90
59469;DHT22;45277;52.768;18.262;2023-02-01T09:05:18;4.20;99.90
59469;DHT22;45277;52.768;18.262;2023-02-01T09:06:53;4.20;99.90
59469;DHT22;45277;52.768;18.262;2023-02-01T09:08:26;4.10;99.90
59469;DHT22;45277;52.768;18.262;2023-02-01T09:09:58;4.20;99.90
59469;DHT22;45277;52.768;18.262;2023-02-01T09:11:32;4.20;99.90
59469;DHT22;45277;52.768;18.262;2023-02-01T09:13:04;4.20;99.90
59469;DHT22;45277;52.768;18.262;2023-02-01T09:14:35;4.30;99.90
59469;DHT22;45277;52.768;18.262;2023-02-01T09:16:07;4.30;99.90
59469;DHT22;45277;52.768;18.262;2023-02-01T09:17:39;4.30;99.90
59469;DHT22;45277;52.768;18.262;2023-02-01T09:19:12;4.30;99.90
59469;DHT22;45277;52.768;18.262;2023-02-01T09:20:45;4.30;99.90
59469;DHT22;45277;52.768;18.262;2023-02-01T09:22:17;4.30;99.90
59469;DHT22;45277;52.768;18.262;2023-02-01T09:23:50;4.20;99.90
59469;DHT22;45277;52.768;18.262;2023-02-01T09:25:22;4.10;99.90
59469;DHT22;45277;52.768;18.262;2023-02-01T09:26:54;4.00;99.90
59469;DHT22;45277;52.768;18.262;2023-02-01T09:28:26;3.90;99.90
59469;DHT22;45277;52.768;18.262;2023-02-01T09:29:58;3.80;99.90
59469;DHT22;45277;52.768;18.262;2023-02-01T09:31:30;3.80;99.90
59469;DHT22;45277;52.768;18.262;2023-02-01T09:33:02;3.80;99.90
59469;DHT22;45277;52.768;18.262;2023-02-01T09:34:34;3.80;99.90
59469;DHT22;45277;52.768;18.262;2023-02-01T09:36:06;3.90;99.90
59469;DHT22;45277;52.768;18.262;2023-02-01T09:37:38;3.90;99.90
59469;DHT22;45277;52.768;18.262;2023-02-01T09:39:10;3.90;99.90
59469;DHT22;45277;52.768;18.262;2023-02-01T09:40:45;3.90;99.90
59469;DHT22;45277;52.768;18.262;2023-02-01T09:46:27;4.10;99.90
59469;DHT22;45277;52.768;18.262;2023-02-01T09:48:15;4.20;99.90
59469;DHT22;45277;52.768;18.262;2023-02-01T09:51:30;4.20;99.90
59469;DHT22;45277;52.768;18.262;2023-02-01T09:53:09;4.30;99.90
59469;DHT22;45277;52.768;18.262;2023-02-01T09:54:55;4.30;99.90
59469;DHT22;45277;52.768;18.262;2023-02-01T09:57:01;4.40;99.90
59469;DHT22;45277;52.768;18.262;2023-02-01T09:58:47;4.50;99.90
59469;DHT22;45277;52.768;18.262;2023-02-01T10:00:25;4.50;99.90
59469;DHT22;45277;52.768;18.262;2023-02-01T10:01:57;4.50;99.90
59469;DHT22;45277;52.768;18.262;2023-02-01T10:03:35;4.40;99.90
59469;DHT22;45277;52.768;18.262;2023-02-01T10:05:13;4.30;99.90
59469;DHT22;45277;52.768;18.262;2023-02-01T10:07:00;4.30;99.90
59469;DHT22;45277;52.768;18.262;2023-02-01T10:08:57;4.20;99.90
59469;DHT22;45277;52.768;18.262;2023-02-01T10:16:15;4.00;99.90
59469;DHT22;45277;52.768;18.262;2023-02-01T10:19:55;4.00;99.90
59469;DHT22;45277;52.768;18.262;2023-02-01T10:27:21;4.10;99.90
59469;DHT22;45277;52.768;18.262;2023-02-01T10:28:58;4.10;99.90
59469;DHT22;45277;52.768;18.262;2023-02-01T10:30:41;4.10;99.90
59469;DHT22;45277;52.768;18.262;2023-02-01T10:32:21;4.20;99.90
59469;DHT22;45277;52.768;18.262;2023-02-01T10:34:03;4.40;99.90
59469;DHT22;45277;52.768;18.262;2023-02-01T10:35:38;4.50;99.90
59469;DHT22;45277;52.768;18.262;2023-02-01T10:38:58;4.70;99.90
59469;DHT22;45277;52.768;18.262;2023-02-01T10:40:30;4.80;99.90